createdAt,value
2019-01-10T00:04:05.141Z,98408.36
2019-01-10T00:06:33.669Z,98414.14
2019-01-10T00:12:05.831Z,98415.16
2019-01-10T00:14:34.360Z,98413.39
2019-01-10T00:17:02.926Z,98412.47
2019-01-10T00:19:32.249Z,98417.03
2019-01-10T00:22:00.683Z,98425.27
2019-01-10T00:24:30.054Z,98421.94
2019-01-10T00:26:59.406Z,98426.13
2019-01-10T00:29:27.830Z,98434.12
2019-01-10T00:31:56.403Z,98425.83
2019-01-10T00:34:24.923Z,98420.58
2019-01-10T00:36:54.247Z,98440.87
2019-01-10T00:39:23.639Z,98433.74
2019-01-10T00:41:52.963Z,98435.36
2019-01-10T00:44:22.297Z,98437.62
2019-01-10T00:46:51.614Z,98438.23
2019-01-10T00:49:20.942Z,98441.19
2019-01-10T00:51:49.466Z,98435.53
2019-01-10T00:54:17.992Z,98435.97
2019-01-10T00:56:47.310Z,98445.24
2019-01-10T00:59:16.637Z,98437.93
2019-01-10T01:01:45.210Z,98440.56
2019-01-10T01:04:14.533Z,98447.22
2019-01-10T01:06:43.867Z,98455.33
2019-01-10T01:09:13.186Z,98456.56
2019-01-10T01:11:42.520Z,98460.13
2019-01-10T01:14:11.859Z,98462.28
2019-01-10T01:16:40.392Z,98457.86
2019-01-10T01:19:08.816Z,98460.42
2019-01-10T01:21:38.147Z,98456.68
2019-01-10T01:24:07.472Z,98447.14
2019-01-10T01:26:36.845Z,98436.70
2019-01-10T01:32:08.352Z,98441.32
2019-01-10T01:34:37.700Z,98441.55
2019-01-10T01:37:07.056Z,98446.98
2019-01-10T01:39:36.395Z,98440.47
2019-01-10T01:42:05.953Z,98440.52
2019-01-10T01:44:35.347Z,98438.36
2019-01-10T01:47:03.835Z,98438.17
2019-01-10T01:49:32.371Z,98431.30
2019-01-10T01:52:00.812Z,98416.11
2019-01-10T01:54:30.143Z,98419.12
2019-01-10T01:56:59.466Z,98411.07
2019-01-10T01:59:27.912Z,98421.47
2019-01-10T02:01:57.267Z,98419.55
2019-01-10T02:04:26.698Z,98424.67
2019-01-10T02:06:56.073Z,98423.63
2019-01-10T02:09:24.622Z,98428.59
2019-01-10T02:11:53.268Z,98420.22
2019-01-10T02:14:21.717Z,98427.55
2019-01-10T02:16:51.046Z,98427.05
2019-01-10T02:19:20.382Z,98427.10
2019-01-10T02:21:49.816Z,98422.57
2019-01-10T02:24:19.146Z,98416.47
2019-01-10T02:26:48.471Z,98420.23
2019-01-10T02:29:16.899Z,98416.36
2019-01-10T02:31:45.367Z,98423.16
2019-01-10T02:34:13.820Z,98425.94
2019-01-10T02:36:43.150Z,98435.16
2019-01-10T02:39:12.466Z,98442.80
2019-01-10T02:41:41.802Z,98453.63
2019-01-10T02:47:13.829Z,98454.92
2019-01-10T02:52:45.234Z,98436.91
2019-01-10T02:55:14.770Z,98428.45
2019-01-10T02:57:44.079Z,98433.13
2019-01-10T03:00:18.458Z,98433.06
2019-01-10T03:02:47.114Z,98432.15
2019-01-10T03:08:17.931Z,98429.05
2019-01-10T03:10:46.454Z,98421.81
2019-01-10T03:13:15.776Z,98419.52
2019-01-10T03:15:45.201Z,98422.63
2019-01-10T03:18:14.533Z,98424.72
2019-01-10T03:20:43.846Z,98433.19
2019-01-10T03:23:13.165Z,98434.23
2019-01-10T03:25:41.702Z,98433.94
2019-01-10T03:28:11.038Z,98438.86
2019-01-10T03:30:39.462Z,98441.44
2019-01-10T03:33:07.987Z,98440.95
2019-01-10T03:35:37.304Z,98435.96
2019-01-10T03:38:06.632Z,98439.27
2019-01-10T03:40:35.959Z,98455.34
2019-01-10T03:43:05.279Z,98465.18
2019-01-10T03:45:34.605Z,98476.32
2019-01-10T03:48:04.145Z,98468.02
2019-01-10T03:50:32.656Z,98470.42
2019-01-10T03:53:01.068Z,98471.34
2019-01-10T03:55:29.487Z,98470.40
2019-01-10T03:57:58.793Z,98466.55
2019-01-10T04:00:28.109Z,98462.16
2019-01-10T04:02:57.434Z,98464.38
2019-01-10T04:05:26.755Z,98466.86
2019-01-10T04:07:55.268Z,98470.72
2019-01-10T04:10:23.686Z,98477.54
2019-01-10T04:12:52.108Z,98483.27
2019-01-10T04:15:21.441Z,98472.12
2019-01-10T04:17:50.758Z,98477.48
2019-01-10T04:20:20.139Z,98478.53
2019-01-10T04:22:49.622Z,98467.84
2019-01-10T04:25:18.938Z,98465.11
2019-01-10T04:27:48.248Z,98461.63
2019-01-10T04:30:20.578Z,98465.42
2019-01-10T04:32:50.014Z,98480.88
2019-01-10T04:35:19.343Z,98496.94
2019-01-10T04:37:48.763Z,98501.84
2019-01-10T04:40:19.687Z,98500.36
2019-01-10T04:42:48.202Z,98488.73
2019-01-10T04:45:17.628Z,98483.76
2019-01-10T04:47:46.938Z,98481.17
2019-01-10T04:50:15.556Z,98489.80
2019-01-10T04:52:44.186Z,98493.61
2019-01-10T04:55:13.699Z,98508.84
2019-01-10T04:57:43.021Z,98525.67
2019-01-10T05:00:31.753Z,98523.80
2019-01-10T05:03:00.282Z,98523.02
2019-01-10T05:05:28.686Z,98508.00
2019-01-10T05:07:57.115Z,98515.75
2019-01-10T05:10:26.429Z,98506.28
2019-01-10T05:12:54.859Z,98510.14
2019-01-10T05:15:24.189Z,98518.89
2019-01-10T05:17:53.496Z,98527.81
2019-01-10T05:20:22.828Z,98522.87
2019-01-10T05:22:52.149Z,98515.75
2019-01-10T05:25:21.462Z,98501.84
2019-01-10T05:27:50.801Z,98509.41
2019-01-10T05:30:21.448Z,98534.95
2019-01-10T05:32:50.036Z,98528.87
2019-01-10T05:35:19.563Z,98527.94
2019-01-10T05:37:48.024Z,98538.16
2019-01-10T05:40:17.423Z,98539.44
2019-01-10T05:42:46.779Z,98546.70
2019-01-10T05:45:16.449Z,98549.34
2019-01-10T05:47:44.971Z,98563.80
2019-01-10T05:50:17.638Z,98559.87
2019-01-10T05:52:45.752Z,98569.73
2019-01-10T05:55:17.269Z,98572.75
2019-01-10T05:57:46.694Z,98581.36
2019-01-10T06:00:18.976Z,98583.02
2019-01-10T06:02:47.501Z,98575.25
2019-01-10T06:05:16.854Z,98565.27
2019-01-10T06:07:46.218Z,98566.63
2019-01-10T06:10:17.487Z,98564.80
2019-01-10T06:12:45.893Z,98583.63
2019-01-10T06:15:15.448Z,98589.48
2019-01-10T06:17:43.983Z,98581.85
2019-01-10T06:20:14.229Z,98585.00
2019-01-10T06:22:42.678Z,98591.02
2019-01-10T06:25:23.094Z,98596.98
2019-01-10T06:27:51.673Z,98600.81
2019-01-10T06:30:22.440Z,98611.64
2019-01-10T06:32:51.005Z,98619.70
2019-01-10T06:35:20.423Z,98618.28
2019-01-10T06:37:49.760Z,98620.58
2019-01-10T06:40:20.707Z,98614.42
2019-01-10T06:42:49.140Z,98623.27
2019-01-10T06:45:18.232Z,98634.44
2019-01-10T06:47:47.617Z,98642.13
2019-01-10T06:50:17.194Z,98640.39
2019-01-10T06:52:45.853Z,98641.05
2019-01-10T06:55:14.392Z,98652.23
2019-01-10T06:57:44.124Z,98681.72
2019-01-10T07:00:15.519Z,98676.56
2019-01-10T07:02:44.302Z,98678.44
2019-01-10T07:05:13.648Z,98692.75
2019-01-10T07:07:43.002Z,98688.38
2019-01-10T07:10:15.832Z,98674.76
2019-01-10T07:12:44.383Z,98669.83
2019-01-10T07:15:14.068Z,98663.06
2019-01-10T07:17:43.421Z,98670.81
2019-01-10T07:20:12.955Z,98685.30
2019-01-10T07:22:44.284Z,98679.56
2019-01-10T07:25:13.153Z,98678.33
2019-01-10T07:30:44.681Z,98685.48
2019-01-10T07:33:14.034Z,98676.38
2019-01-10T07:35:43.400Z,98664.23
2019-01-10T07:38:12.823Z,98678.69
2019-01-10T07:40:42.169Z,98694.91
2019-01-10T07:43:11.517Z,98697.44
2019-01-10T07:45:40.866Z,98691.02
2019-01-10T07:48:09.308Z,98709.00
2019-01-10T07:50:37.752Z,98703.65
2019-01-10T07:53:08.198Z,98706.55
2019-01-10T07:55:38.060Z,98716.41
2019-01-10T07:58:06.831Z,98714.17
2019-01-10T08:00:36.397Z,98706.42
2019-01-10T08:03:06.018Z,98717.52
2019-01-10T08:05:35.595Z,98725.16
2019-01-10T08:11:07.356Z,98708.45
2019-01-10T08:13:36.784Z,98715.22
2019-01-10T08:16:06.204Z,98724.95
2019-01-10T08:18:35.521Z,98731.61
2019-01-10T08:21:04.952Z,98738.10
2019-01-10T08:23:33.415Z,98722.86
2019-01-10T08:26:01.876Z,98720.56
2019-01-10T08:28:31.185Z,98706.83
2019-01-10T08:31:00.516Z,98692.64
2019-01-10T08:33:29.859Z,98698.31
2019-01-10T08:35:59.293Z,98689.25
2019-01-10T08:38:28.693Z,98697.74
2019-01-10T08:40:58.018Z,98702.95
2019-01-10T08:43:27.330Z,98698.91
2019-01-10T08:45:56.727Z,98708.03
2019-01-10T08:48:26.052Z,98708.93
2019-01-10T08:50:55.393Z,98703.28
2019-01-10T08:53:23.827Z,98706.45
2019-01-10T08:55:53.354Z,98698.48
2019-01-10T08:58:24.658Z,98705.17
2019-01-10T09:01:11.976Z,98710.12
2019-01-10T09:03:41.341Z,98720.83
2019-01-10T09:06:10.820Z,98714.79
2019-01-10T09:08:40.145Z,98702.14
2019-01-10T09:11:09.509Z,98695.98
2019-01-10T09:13:38.985Z,98689.47
2019-01-10T09:16:08.314Z,98683.94
2019-01-10T09:18:37.652Z,98706.18
2019-01-10T09:21:07.049Z,98709.12
2019-01-10T09:23:35.538Z,98696.40
2019-01-10T09:26:05.002Z,98687.11
2019-01-10T09:28:33.424Z,98681.81
2019-01-10T09:31:14.256Z,98684.73
2019-01-10T09:33:42.883Z,98685.70
2019-01-10T09:36:12.236Z,98691.38
2019-01-10T09:38:41.628Z,98702.25
2019-01-10T09:41:10.957Z,98702.33
2019-01-10T09:43:40.261Z,98704.84
2019-01-10T09:46:09.600Z,98693.25
2019-01-10T09:48:38.942Z,98683.03
2019-01-10T09:51:07.507Z,98667.84
2019-01-10T09:53:36.063Z,98669.55
2019-01-10T09:56:17.110Z,98655.46
2019-01-10T09:58:46.486Z,98654.66
2019-01-10T10:01:15.842Z,98662.52
2019-01-10T10:03:45.286Z,98653.28
2019-01-10T10:06:14.712Z,98646.17
2019-01-10T10:08:44.114Z,98651.69
2019-01-10T10:11:13.447Z,98644.73
2019-01-10T10:13:41.783Z,98650.77
2019-01-10T10:19:05.417Z,98639.39
2019-01-10T10:21:34.714Z,98625.78
2019-01-10T10:24:04.150Z,98625.86
2019-01-10T10:26:33.478Z,98644.58
2019-01-10T10:29:22.162Z,98643.20
2019-01-10T10:31:51.502Z,98657.83
2019-01-10T10:34:20.032Z,98647.91
2019-01-10T10:36:48.559Z,98638.81
2019-01-10T10:39:17.882Z,98642.26
2019-01-10T10:41:47.206Z,98648.53
2019-01-10T10:44:16.538Z,98639.46
2019-01-10T10:46:44.977Z,98640.34
2019-01-10T10:49:32.319Z,98641.70
2019-01-10T10:52:00.750Z,98624.91
2019-01-10T10:54:30.092Z,98619.31
2019-01-10T10:56:59.435Z,98634.01
2019-01-10T10:59:28.762Z,98637.54
2019-01-10T11:01:57.300Z,98627.38
2019-01-10T11:04:26.643Z,98636.36
2019-01-10T11:06:55.997Z,98625.14
2019-01-10T11:09:25.339Z,98631.48
2019-01-10T11:11:53.858Z,98631.55
2019-01-10T11:17:24.691Z,98629.41
2019-01-10T11:22:55.447Z,98656.04
2019-01-10T11:25:28.308Z,98642.13
2019-01-10T11:27:57.299Z,98634.38
2019-01-10T11:30:25.835Z,98634.35
2019-01-10T11:32:55.183Z,98633.94
2019-01-10T11:35:23.735Z,98641.34
2019-01-10T11:37:53.166Z,98644.08
2019-01-10T11:40:22.542Z,98635.34
2019-01-10T11:42:52.007Z,98623.27
2019-01-10T11:45:23.863Z,98622.72
2019-01-10T11:47:53.318Z,98610.34
2019-01-10T11:50:22.645Z,98604.14
2019-01-10T11:52:51.992Z,98605.64
2019-01-10T11:55:21.338Z,98596.08
2019-01-10T11:57:50.659Z,98597.70
2019-01-10T12:00:43.920Z,98595.99
2019-01-10T12:03:13.275Z,98603.47
2019-01-10T12:05:48.289Z,98611.54
2019-01-10T12:08:16.242Z,98615.16
2019-01-10T12:10:45.578Z,98624.91
2019-01-10T12:13:14.920Z,98626.52
2019-01-10T12:15:44.273Z,98618.03
2019-01-10T12:18:13.600Z,98623.48
2019-01-10T12:20:43.553Z,98608.66
2019-01-10T12:23:12.910Z,98618.36
2019-01-10T12:25:42.246Z,98611.41
2019-01-10T12:28:11.577Z,98613.20
2019-01-10T12:30:40.210Z,98590.09
2019-01-10T12:33:08.664Z,98595.62
2019-01-10T12:35:37.165Z,98578.81
2019-01-10T12:38:06.481Z,98580.44
2019-01-10T12:40:35.865Z,98585.62
2019-01-10T12:43:17.304Z,98599.82
2019-01-10T12:45:45.916Z,98594.05
2019-01-10T12:48:15.263Z,98590.67
2019-01-10T12:50:44.670Z,98585.14
2019-01-10T12:53:13.999Z,98584.84
2019-01-10T12:55:43.333Z,98591.24
2019-01-10T12:58:12.637Z,98598.16
2019-01-10T13:00:41.998Z,98592.13
2019-01-10T13:03:10.446Z,98594.21
2019-01-10T13:05:39.892Z,98599.75
2019-01-10T13:08:09.258Z,98594.90
2019-01-10T13:10:38.619Z,98595.55
2019-01-10T13:13:07.967Z,98586.56
2019-01-10T13:15:37.331Z,98593.90
2019-01-10T13:18:05.973Z,98605.12
2019-01-10T13:20:35.307Z,98598.94
2019-01-10T13:23:04.682Z,98596.49
2019-01-10T13:25:33.499Z,98592.45
2019-01-10T13:31:04.813Z,98577.84
2019-01-10T13:33:33.401Z,98579.14
2019-01-10T13:39:07.347Z,98588.12
2019-01-10T13:41:36.047Z,98567.10
2019-01-10T13:44:04.742Z,98552.37
2019-01-10T13:49:17.119Z,98563.95
2019-01-10T13:51:46.444Z,98566.80
2019-01-10T13:54:15.792Z,98572.72
2019-01-10T13:56:44.443Z,98580.12
2019-01-10T14:01:42.255Z,98578.77
2019-01-10T14:04:11.645Z,98563.45
2019-01-10T14:06:41.088Z,98566.39
2019-01-10T14:09:22.001Z,98559.88
2019-01-10T14:14:53.782Z,98567.45
2019-01-10T14:17:23.129Z,98559.62
2019-01-10T14:19:52.486Z,98558.61
2019-01-10T14:22:21.828Z,98556.94
2019-01-10T14:24:51.288Z,98552.48
2019-01-10T14:27:20.618Z,98531.22
2019-01-10T14:29:49.977Z,98513.41
2019-01-10T14:32:35.195Z,98520.50
2019-01-10T14:35:04.891Z,98520.38
2019-01-10T14:40:36.845Z,98576.31
2019-01-10T14:43:06.184Z,98560.41
2019-01-10T14:45:37.259Z,98569.48
2019-01-10T14:48:06.612Z,98589.34
2019-01-10T14:50:36.037Z,98565.69
2019-01-10T14:56:07.541Z,98571.28
2019-01-10T14:58:36.877Z,98573.81
2019-01-10T15:04:08.384Z,98586.92
2019-01-10T15:06:37.722Z,98600.17
2019-01-10T15:09:07.467Z,98616.66
2019-01-10T15:11:36.809Z,98610.74
2019-01-10T15:23:14.214Z,98622.25
2019-01-10T15:25:42.876Z,98614.13
2019-01-10T15:31:13.912Z,98615.80
2019-01-10T15:33:42.387Z,98586.36
2019-01-10T15:39:13.515Z,98620.48
2019-01-10T15:44:44.294Z,98593.86
2019-01-10T15:49:56.874Z,98574.64
2019-01-10T15:52:26.202Z,98558.15
2019-01-10T15:54:55.533Z,98542.89
2019-01-10T15:57:45.257Z,98534.91
2019-01-10T16:00:17.060Z,98539.36
2019-01-10T16:02:45.718Z,98528.14
2019-01-10T16:05:15.106Z,98586.00
2019-01-10T16:07:44.447Z,98570.37
2019-01-10T16:13:16.517Z,98519.05
2019-01-10T16:15:45.848Z,98498.31
2019-01-10T16:18:15.200Z,98526.67
2019-01-10T16:20:44.528Z,98541.45
2019-01-10T16:26:15.951Z,98552.84
2019-01-10T16:28:45.332Z,98534.03
2019-01-10T16:39:43.407Z,98528.14
2019-01-10T16:45:17.744Z,98513.25
2019-01-10T16:50:49.618Z,98530.44
2019-01-10T16:53:18.647Z,98520.52
2019-01-10T16:58:49.240Z,98549.88
2019-01-10T17:01:18.565Z,98549.43
2019-01-10T17:06:49.531Z,98542.02
2019-01-10T17:12:20.314Z,98535.47
2019-01-10T17:17:51.159Z,98562.95
2019-01-10T17:20:21.493Z,98567.84
2019-01-10T17:25:52.008Z,98577.43
2019-01-10T17:28:41.637Z,98567.16
2019-01-10T17:31:10.988Z,98569.39
2019-01-10T17:36:42.419Z,98596.72
2019-01-10T17:39:11.750Z,98597.08
2019-01-10T17:41:41.131Z,98586.65
2019-01-10T17:47:12.207Z,98579.80
2019-01-10T17:58:29.069Z,98576.58
2019-01-10T18:09:46.632Z,98592.18
2019-01-10T18:12:15.191Z,98615.98
2019-01-10T18:17:50.228Z,98602.05
2019-01-10T18:20:40.354Z,98587.16
2019-01-10T18:26:14.983Z,98575.72
2019-01-10T18:28:43.597Z,98590.09
2019-01-10T18:31:12.943Z,98581.02
2019-01-10T18:33:42.295Z,98574.42
2019-01-10T18:36:11.647Z,98561.23
2019-01-10T18:38:40.999Z,98572.89
2019-01-10T18:41:10.326Z,98584.44
2019-01-10T18:43:39.669Z,98588.08
2019-01-10T18:46:09.006Z,98601.33
2019-01-10T18:48:39.906Z,98593.98
2019-01-10T18:51:26.789Z,98603.64
2019-01-10T18:53:56.140Z,98616.66
2019-01-10T18:56:25.491Z,98607.07
2019-01-10T18:58:54.825Z,98637.30
2019-01-10T19:01:24.143Z,98641.05
2019-01-10T19:03:53.489Z,98643.00
2019-01-10T19:06:22.827Z,98633.99
2019-01-10T19:08:52.145Z,98637.11
2019-01-10T19:11:22.438Z,98630.83
2019-01-10T19:14:10.715Z,98648.33
2019-01-10T19:16:39.128Z,98647.66
2019-01-10T19:19:08.466Z,98660.40
2019-01-10T19:21:37.787Z,98674.17
2019-01-10T19:24:07.196Z,98653.50
2019-01-10T19:26:35.857Z,98641.91
2019-01-10T19:29:05.191Z,98627.16
2019-01-10T19:31:34.512Z,98607.81
2019-01-10T19:34:03.849Z,98603.78
2019-01-10T19:36:33.186Z,98611.69
2019-01-10T19:39:01.705Z,98629.11
2019-01-10T19:41:30.240Z,98647.47
2019-01-10T19:43:58.757Z,98650.12
2019-01-10T19:46:28.092Z,98648.33
2019-01-10T19:48:57.413Z,98650.39
2019-01-10T19:51:26.725Z,98654.75
2019-01-10T19:53:56.043Z,98656.17
2019-01-10T19:56:25.392Z,98654.50
2019-01-10T19:58:53.913Z,98659.92
2019-01-10T20:01:25.821Z,98665.44
2019-01-10T20:03:54.446Z,98663.73
2019-01-10T20:06:23.059Z,98659.13
2019-01-10T20:08:51.498Z,98668.63
2019-01-10T20:11:20.818Z,98680.99
2019-01-10T20:13:50.333Z,98682.67
2019-01-10T20:16:19.667Z,98689.70
2019-01-10T20:18:49.052Z,98690.92
2019-01-10T20:21:18.378Z,98686.42
2019-01-10T20:23:47.697Z,98678.62
2019-01-10T20:26:17.135Z,98673.80
2019-01-10T20:28:46.592Z,98661.94
2019-01-10T20:31:15.917Z,98657.45
2019-01-10T20:33:45.262Z,98651.21
2019-01-10T20:42:18.911Z,98628.30
2019-01-10T20:44:48.229Z,98611.45
2019-01-10T20:47:17.563Z,98611.81
2019-01-10T20:49:46.991Z,98619.94
2019-01-10T20:52:15.504Z,98636.37
2019-01-10T20:54:44.841Z,98639.88
2019-01-10T20:57:14.199Z,98630.31
2019-01-10T20:59:43.526Z,98623.97
2019-01-10T21:02:12.842Z,98643.49
2019-01-10T21:04:42.271Z,98650.69
2019-01-10T21:07:11.614Z,98663.64
2019-01-10T21:09:40.929Z,98673.95
2019-01-10T21:12:10.349Z,98687.72
2019-01-10T21:14:39.728Z,98693.53
2019-01-10T21:17:08.341Z,98698.86
2019-01-10T21:19:36.761Z,98690.22
2019-01-10T21:22:06.087Z,98674.37
2019-01-10T21:24:35.519Z,98667.04
2019-01-10T21:27:04.879Z,98668.06
2019-01-10T21:29:34.210Z,98657.69
2019-01-10T21:32:03.653Z,98650.20
2019-01-10T21:34:33.007Z,98657.80
2019-01-10T21:37:01.526Z,98656.73
2019-01-10T21:39:30.055Z,98661.06
2019-01-10T21:41:59.375Z,98642.98
2019-01-10T21:44:28.703Z,98651.69
2019-01-10T21:46:58.123Z,98653.50
2019-01-10T21:49:27.445Z,98658.16
2019-01-10T21:51:56.803Z,98656.53
2019-01-10T21:57:05.449Z,98664.72
2019-01-10T21:59:33.890Z,98655.08
2019-01-10T22:02:03.418Z,98647.33
2019-01-10T22:04:31.834Z,98662.35
2019-01-10T22:07:00.353Z,98675.45
2019-01-10T22:09:28.889Z,98669.85
2019-01-10T22:11:58.229Z,98676.19
2019-01-10T22:14:27.563Z,98682.89
2019-01-10T22:16:56.007Z,98697.78
2019-01-10T22:19:25.322Z,98708.50
2019-01-10T22:21:54.665Z,98705.55
2019-01-10T22:24:22.997Z,98701.39
2019-01-10T22:26:51.505Z,98710.44
2019-01-10T22:29:20.826Z,98722.59
2019-01-10T22:31:50.155Z,98726.48
2019-01-10T22:34:19.472Z,98723.97
2019-01-10T22:36:48.802Z,98736.88
2019-01-10T22:39:18.165Z,98750.84
2019-01-10T22:41:47.480Z,98778.77
2019-01-10T22:44:16.833Z,98777.05
2019-01-10T22:46:45.649Z,98783.58
2019-01-10T22:49:14.164Z,98781.86
2019-01-10T22:51:42.688Z,98784.80
2019-01-10T22:56:54.984Z,98804.91
2019-01-10T22:59:23.457Z,98794.12
2019-01-10T23:04:55.594Z,98797.56
2019-01-10T23:10:08.722Z,98786.70
2019-01-10T23:12:37.356Z,98785.33
2019-01-10T23:18:26.326Z,98809.46
2019-01-10T23:21:16.902Z,98786.91
2019-01-10T23:23:45.330Z,98781.25
2019-01-10T23:26:14.773Z,98793.83
2019-01-10T23:28:46.813Z,98782.09
2019-01-10T23:31:17.101Z,98770.86
2019-01-10T23:37:07.864Z,98779.88
2019-01-10T23:39:36.928Z,98789.03
2019-01-10T23:42:06.257Z,98786.13
2019-01-10T23:44:35.575Z,98778.30
2019-01-10T23:47:05.000Z,98782.16
2019-01-10T23:49:34.358Z,98799.51
2019-01-10T23:52:03.887Z,98805.63
2019-01-10T23:54:32.302Z,98812.47
2019-01-10T23:57:00.770Z,98807.65
2019-01-10T23:59:30.093Z,98812.91
